sensor_id;sensor_type;location;lat;lon;timestamp;temperature;humidity
8095;DHT22;4090;49.270;8.696;2024-01-30T00:00:30;5.20;99.90
8095;DHT22;4090;49.270;8.696;2024-01-30T00:03:12;5.20;99.90
8095;DHT22;4090;49.270;8.696;2024-01-30T00:05:56;5.20;99.90
8095;DHT22;4090;49.270;8.696;2024-01-30T00:08:37;5.20;99.90
8095;DHT22;4090;49.270;8.696;2024-01-30T00:11:19;5.20;99.90
8095;DHT22;4090;49.270;8.696;2024-01-30T00:14:01;5.20;99.90
8095;DHT22;4090;49.270;8.696;2024-01-30T00:16:43;5.20;99.90
8095;DHT22;4090;49.270;8.696;2024-01-30T00:19:26;5.20;99.90
8095;DHT22;4090;49.270;8.696;2024-01-30T00:22:09;5.20;99.90
8095;DHT22;4090;49.270;8.696;2024-01-30T00:24:51;5.20;99.90
8095;DHT22;4090;49.270;8.696;2024-01-30T00:27:33;5.30;99.90
8095;DHT22;4090;49.270;8.696;2024-01-30T00:30:15;5.20;99.90
8095;DHT22;4090;49.270;8.696;2024-01-30T00:32:57;5.20;99.90
8095;DHT22;4090;49.270;8.696;2024-01-30T00:35:38;5.20;99.90
8095;DHT22;4090;49.270;8.696;2024-01-30T00:38:22;5.10;99.90
8095;DHT22;4090;49.270;8.696;2024-01-30T00:41:04;5.10;99.90
8095;DHT22;4090;49.270;8.696;2024-01-30T00:43:46;5.10;99.90
8095;DHT22;4090;49.270;8.696;2024-01-30T00:46:28;5.10;99.90
8095;DHT22;4090;49.270;8.696;2024-01-30T00:49:10;5.10;99.90
8095;DHT22;4090;49.270;8.696;2024-01-30T00:51:52;5.10;99.90
8095;DHT22;4090;49.270;8.696;2024-01-30T00:54:35;5.10;99.90
8095;DHT22;4090;49.270;8.696;2024-01-30T00:57:17;5.10;99.90
8095;DHT22;4090;49.270;8.696;2024-01-30T00:59:59;5.10;99.90
8095;DHT22;4090;49.270;8.696;2024-01-30T01:02:41;5.00;99.90
8095;DHT22;4090;49.270;8.696;2024-01-30T01:05:23;5.00;99.90
8095;DHT22;4090;49.270;8.696;2024-01-30T01:08:05;5.00;99.90
8095;DHT22;4090;49.270;8.696;2024-01-30T01:10:49;5.00;99.90
8095;DHT22;4090;49.270;8.696;2024-01-30T01:13:31;5.00;99.90
8095;DHT22;4090;49.270;8.696;2024-01-30T01:16:12;4.90;99.90
8095;DHT22;4090;49.270;8.696;2024-01-30T01:18:55;4.90;99.90
8095;DHT22;4090;49.270;8.696;2024-01-30T01:21:36;4.90;99.90
8095;DHT22;4090;49.270;8.696;2024-01-30T01:24:18;4.90;99.90
8095;DHT22;4090;49.270;8.696;2024-01-30T01:27:02;4.90;99.90
8095;DHT22;4090;49.270;8.696;2024-01-30T01:29:44;4.90;99.90
8095;DHT22;4090;49.270;8.696;2024-01-30T01:32:26;4.90;99.90
8095;DHT22;4090;49.270;8.696;2024-01-30T01:35:08;4.90;99.90
8095;DHT22;4090;49.270;8.696;2024-01-30T01:37:50;4.90;99.90
8095;DHT22;4090;49.270;8.696;2024-01-30T01:40:35;4.90;99.90
8095;DHT22;4090;49.270;8.696;2024-01-30T01:43:21;4.80;99.90
8095;DHT22;4090;49.270;8.696;2024-01-30T01:46:03;4.80;99.90
8095;DHT22;4090;49.270;8.696;2024-01-30T01:48:45;4.80;99.90
8095;DHT22;4090;49.270;8.696;2024-01-30T01:51:28;4.80;99.90
8095;DHT22;4090;49.270;8.696;2024-01-30T01:54:11;4.80;99.90
8095;DHT22;4090;49.270;8.696;2024-01-30T01:56:53;4.80;99.90
8095;DHT22;4090;49.270;8.696;2024-01-30T01:59:37;4.80;99.90
8095;DHT22;4090;49.270;8.696;2024-01-30T02:02:19;4.80;99.90
8095;DHT22;4090;49.270;8.696;2024-01-30T02:05:02;4.80;99.90
8095;DHT22;4090;49.270;8.696;2024-01-30T02:07:44;4.80;99.90
8095;DHT22;4090;49.270;8.696;2024-01-30T02:10:26;4.80;99.90
8095;DHT22;4090;49.270;8.696;2024-01-30T02:13:08;4.70;99.90
8095;DHT22;4090;49.270;8.696;2024-01-30T02:15:51;4.70;99.90
8095;DHT22;4090;49.270;8.696;2024-01-30T02:18:34;4.70;99.90
8095;DHT22;4090;49.270;8.696;2024-01-30T02:21:33;4.70;99.90
8095;DHT22;4090;49.270;8.696;2024-01-30T02:24:14;4.70;99.90
8095;DHT22;4090;49.270;8.696;2024-01-30T02:26:58;4.70;99.90
8095;DHT22;4090;49.270;8.696;2024-01-30T02:29:40;4.70;99.90
8095;DHT22;4090;49.270;8.696;2024-01-30T02:32:22;4.70;99.90
8095;DHT22;4090;49.270;8.696;2024-01-30T02:35:04;4.70;99.90
8095;DHT22;4090;49.270;8.696;2024-01-30T02:37:47;4.70;99.90
8095;DHT22;4090;49.270;8.696;2024-01-30T02:40:29;4.60;99.90
8095;DHT22;4090;49.270;8.696;2024-01-30T02:43:12;4.60;99.90
8095;DHT22;4090;49.270;8.696;2024-01-30T02:45:58;4.50;99.90
8095;DHT22;4090;49.270;8.696;2024-01-30T02:48:42;4.60;99.90
8095;DHT22;4090;49.270;8.696;2024-01-30T02:51:24;4.60;99.90
8095;DHT22;4090;49.270;8.696;2024-01-30T02:54:07;4.50;99.90
8095;DHT22;4090;49.270;8.696;2024-01-30T02:56:49;4.50;99.90
8095;DHT22;4090;49.270;8.696;2024-01-30T02:59:31;4.50;99.90
8095;DHT22;4090;49.270;8.696;2024-01-30T03:02:14;4.40;99.90
8095;DHT22;4090;49.270;8.696;2024-01-30T03:04:55;4.40;99.90
8095;DHT22;4090;49.270;8.696;2024-01-30T03:07:37;4.50;99.90
8095;DHT22;4090;49.270;8.696;2024-01-30T03:10:21;4.40;99.90
8095;DHT22;4090;49.270;8.696;2024-01-30T03:13:03;4.50;99.90
8095;DHT22;4090;49.270;8.696;2024-01-30T03:15:45;4.50;99.90
8095;DHT22;4090;49.270;8.696;2024-01-30T03:18:26;4.40;99.90
8095;DHT22;4090;49.270;8.696;2024-01-30T03:21:08;4.40;99.90
8095;DHT22;4090;49.270;8.696;2024-01-30T03:23:50;4.30;99.90
8095;DHT22;4090;49.270;8.696;2024-01-30T03:26:33;4.30;99.90
8095;DHT22;4090;49.270;8.696;2024-01-30T03:29:15;4.30;99.90
8095;DHT22;4090;49.270;8.696;2024-01-30T03:31:57;4.40;99.90
8095;DHT22;4090;49.270;8.696;2024-01-30T03:34:39;4.30;99.90
8095;DHT22;4090;49.270;8.696;2024-01-30T03:37:21;4.30;99.90
8095;DHT22;4090;49.270;8.696;2024-01-30T03:40:04;4.40;99.90
8095;DHT22;4090;49.270;8.696;2024-01-30T03:42:47;4.30;99.90
8095;DHT22;4090;49.270;8.696;2024-01-30T03:45:29;4.30;99.90
8095;DHT22;4090;49.270;8.696;2024-01-30T03:48:11;4.30;99.90
8095;DHT22;4090;49.270;8.696;2024-01-30T03:50:53;4.20;99.90
8095;DHT22;4090;49.270;8.696;2024-01-30T03:53:35;4.30;99.90
8095;DHT22;4090;49.270;8.696;2024-01-30T03:56:17;4.20;99.90
8095;DHT22;4090;49.270;8.696;2024-01-30T03:59:00;4.20;99.90
8095;DHT22;4090;49.270;8.696;2024-01-30T04:01:46;4.20;99.90
8095;DHT22;4090;49.270;8.696;2024-01-30T04:04:27;4.20;99.90
8095;DHT22;4090;49.270;8.696;2024-01-30T04:07:09;4.20;99.90
8095;DHT22;4090;49.270;8.696;2024-01-30T04:09:51;4.20;99.90
8095;DHT22;4090;49.270;8.696;2024-01-30T04:12:33;4.20;99.90
8095;DHT22;4090;49.270;8.696;2024-01-30T04:15:16;4.20;99.90
8095;DHT22;4090;49.270;8.696;2024-01-30T04:17:58;4.20;99.90
8095;DHT22;4090;49.270;8.696;2024-01-30T04:20:40;4.20;99.90
8095;DHT22;4090;49.270;8.696;2024-01-30T04:23:23;4.10;99.90
8095;DHT22;4090;49.270;8.696;2024-01-30T04:26:04;4.20;99.90
8095;DHT22;4090;49.270;8.696;2024-01-30T04:28:46;4.20;99.90
8095;DHT22;4090;49.270;8.696;2024-01-30T04:31:29;4.10;99.90
8095;DHT22;4090;49.270;8.696;2024-01-30T04:34:11;4.20;99.90
8095;DHT22;4090;49.270;8.696;2024-01-30T04:36:53;4.10;99.90
8095;DHT22;4090;49.270;8.696;2024-01-30T04:39:35;4.10;99.90
8095;DHT22;4090;49.270;8.696;2024-01-30T04:42:17;4.00;99.90
8095;DHT22;4090;49.270;8.696;2024-01-30T04:44:59;4.00;99.90
8095;DHT22;4090;49.270;8.696;2024-01-30T04:47:43;4.10;99.90
8095;DHT22;4090;49.270;8.696;2024-01-30T04:50:25;4.10;99.90
8095;DHT22;4090;49.270;8.696;2024-01-30T04:53:08;4.00;99.90
8095;DHT22;4090;49.270;8.696;2024-01-30T04:55:49;4.10;99.90
8095;DHT22;4090;49.270;8.696;2024-01-30T04:58:31;4.10;99.90
8095;DHT22;4090;49.270;8.696;2024-01-30T05:01:15;4.10;99.90
8095;DHT22;4090;49.270;8.696;2024-01-30T05:03:58;4.10;99.90
8095;DHT22;4090;49.270;8.696;2024-01-30T05:06:40;4.00;99.90
8095;DHT22;4090;49.270;8.696;2024-01-30T05:09:22;4.00;99.90
8095;DHT22;4090;49.270;8.696;2024-01-30T05:12:04;4.00;99.90
8095;DHT22;4090;49.270;8.696;2024-01-30T05:14:46;4.00;99.90
8095;DHT22;4090;49.270;8.696;2024-01-30T05:17:28;4.00;99.90
8095;DHT22;4090;49.270;8.696;2024-01-30T05:20:12;4.00;99.90
8095;DHT22;4090;49.270;8.696;2024-01-30T05:22:54;4.00;99.90
8095;DHT22;4090;49.270;8.696;2024-01-30T05:25:36;4.00;99.90
8095;DHT22;4090;49.270;8.696;2024-01-30T05:28:18;3.90;99.90
8095;DHT22;4090;49.270;8.696;2024-01-30T05:31:00;4.00;99.90
8095;DHT22;4090;49.270;8.696;2024-01-30T05:33:41;3.90;99.90
8095;DHT22;4090;49.270;8.696;2024-01-30T05:36:25;3.90;99.90
8095;DHT22;4090;49.270;8.696;2024-01-30T05:39:06;4.00;99.90
8095;DHT22;4090;49.270;8.696;2024-01-30T05:41:48;4.00;99.90
8095;DHT22;4090;49.270;8.696;2024-01-30T05:44:30;4.00;99.90
8095;DHT22;4090;49.270;8.696;2024-01-30T05:47:12;3.90;99.90
8095;DHT22;4090;49.270;8.696;2024-01-30T05:49:54;3.90;99.90
8095;DHT22;4090;49.270;8.696;2024-01-30T05:52:37;3.90;99.90
8095;DHT22;4090;49.270;8.696;2024-01-30T05:55:19;3.90;99.90
8095;DHT22;4090;49.270;8.696;2024-01-30T05:58:01;3.90;99.90
8095;DHT22;4090;49.270;8.696;2024-01-30T06:00:42;3.90;99.90
8095;DHT22;4090;49.270;8.696;2024-01-30T06:03:24;3.90;99.90
8095;DHT22;4090;49.270;8.696;2024-01-30T06:06:06;3.90;99.90
8095;DHT22;4090;49.270;8.696;2024-01-30T06:08:49;3.90;99.90
8095;DHT22;4090;49.270;8.696;2024-01-30T06:11:31;3.80;99.90
8095;DHT22;4090;49.270;8.696;2024-01-30T06:14:14;3.80;99.90
8095;DHT22;4090;49.270;8.696;2024-01-30T06:16:56;3.80;99.90
8095;DHT22;4090;49.270;8.696;2024-01-30T06:19:38;3.90;99.90
8095;DHT22;4090;49.270;8.696;2024-01-30T06:22:19;3.80;99.90
8095;DHT22;4090;49.270;8.696;2024-01-30T06:25:03;3.80;99.90
8095;DHT22;4090;49.270;8.696;2024-01-30T06:27:45;3.80;99.90
8095;DHT22;4090;49.270;8.696;2024-01-30T06:30:28;3.80;99.90
8095;DHT22;4090;49.270;8.696;2024-01-30T06:33:11;3.80;99.90
8095;DHT22;4090;49.270;8.696;2024-01-30T06:35:54;3.90;99.90
8095;DHT22;4090;49.270;8.696;2024-01-30T06:38:35;3.90;99.90
8095;DHT22;4090;49.270;8.696;2024-01-30T06:41:19;3.80;99.90
8095;DHT22;4090;49.270;8.696;2024-01-30T06:44:02;3.80;99.90
8095;DHT22;4090;49.270;8.696;2024-01-30T06:46:44;3.80;99.90
8095;DHT22;4090;49.270;8.696;2024-01-30T06:49:26;3.80;99.90
8095;DHT22;4090;49.270;8.696;2024-01-30T06:52:08;3.80;99.90
8095;DHT22;4090;49.270;8.696;2024-01-30T06:54:50;3.70;99.90
8095;DHT22;4090;49.270;8.696;2024-01-30T06:57:33;3.70;99.90
8095;DHT22;4090;49.270;8.696;2024-01-30T07:00:16;3.70;99.90
8095;DHT22;4090;49.270;8.696;2024-01-30T07:03:00;3.70;99.90
8095;DHT22;4090;49.270;8.696;2024-01-30T07:05:42;3.70;99.90
8095;DHT22;4090;49.270;8.696;2024-01-30T07:08:24;3.70;99.90
8095;DHT22;4090;49.270;8.696;2024-01-30T07:11:06;3.60;99.90
8095;DHT22;4090;49.270;8.696;2024-01-30T07:13:50;3.70;99.90
8095;DHT22;4090;49.270;8.696;2024-01-30T07:16:32;3.60;99.90
8095;DHT22;4090;49.270;8.696;2024-01-30T07:19:14;3.60;99.90
8095;DHT22;4090;49.270;8.696;2024-01-30T07:21:55;3.60;99.90
8095;DHT22;4090;49.270;8.696;2024-01-30T07:24:42;3.70;99.90
8095;DHT22;4090;49.270;8.696;2024-01-30T07:27:25;3.70;99.90
8095;DHT22;4090;49.270;8.696;2024-01-30T07:30:09;3.70;99.90
8095;DHT22;4090;49.270;8.696;2024-01-30T07:32:51;3.70;99.90
8095;DHT22;4090;49.270;8.696;2024-01-30T07:35:32;3.70;99.90
8095;DHT22;4090;49.270;8.696;2024-01-30T07:38:14;3.70;99.90
8095;DHT22;4090;49.270;8.696;2024-01-30T07:40:56;3.70;99.90
8095;DHT22;4090;49.270;8.696;2024-01-30T07:43:38;3.60;99.90
8095;DHT22;4090;49.270;8.696;2024-01-30T07:46:21;3.70;99.90
8095;DHT22;4090;49.270;8.696;2024-01-30T07:49:03;3.70;99.90
8095;DHT22;4090;49.270;8.696;2024-01-30T07:51:45;3.70;99.90
8095;DHT22;4090;49.270;8.696;2024-01-30T07:54:27;3.70;99.90
8095;DHT22;4090;49.270;8.696;2024-01-30T07:57:09;3.70;99.90
8095;DHT22;4090;49.270;8.696;2024-01-30T07:59:50;3.70;99.90
8095;DHT22;4090;49.270;8.696;2024-01-30T08:02:33;3.70;99.90
8095;DHT22;4090;49.270;8.696;2024-01-30T08:05:15;3.70;99.90
8095;DHT22;4090;49.270;8.696;2024-01-30T08:07:57;3.70;99.90
8095;DHT22;4090;49.270;8.696;2024-01-30T08:10:39;3.80;99.90
8095;DHT22;4090;49.270;8.696;2024-01-30T08:13:21;3.70;99.90
8095;DHT22;4090;49.270;8.696;2024-01-30T08:16:03;3.80;99.90
8095;DHT22;4090;49.270;8.696;2024-01-30T08:18:47;3.70;99.90
8095;DHT22;4090;49.270;8.696;2024-01-30T08:21:29;3.80;99.90
8095;DHT22;4090;49.270;8.696;2024-01-30T08:24:10;3.80;99.90
8095;DHT22;4090;49.270;8.696;2024-01-30T08:26:52;3.90;99.90
8095;DHT22;4090;49.270;8.696;2024-01-30T08:29:34;3.80;99.90
8095;DHT22;4090;49.270;8.696;2024-01-30T08:32:16;3.90;99.90
8095;DHT22;4090;49.270;8.696;2024-01-30T08:34:59;3.90;99.90
8095;DHT22;4090;49.270;8.696;2024-01-30T08:37:44;4.00;99.90
8095;DHT22;4090;49.270;8.696;2024-01-30T08:40:26;3.80;99.90
8095;DHT22;4090;49.270;8.696;2024-01-30T08:43:08;4.00;99.90
8095;DHT22;4090;49.270;8.696;2024-01-30T08:45:50;3.90;99.90
8095;DHT22;4090;49.270;8.696;2024-01-30T08:48:32;4.00;99.90
8095;DHT22;4090;49.270;8.696;2024-01-30T08:51:16;4.10;99.90
8095;DHT22;4090;49.270;8.696;2024-01-30T08:53:58;4.00;99.90
8095;DHT22;4090;49.270;8.696;2024-01-30T08:56:40;4.10;99.90
8095;DHT22;4090;49.270;8.696;2024-01-30T08:59:22;4.10;99.90
8095;DHT22;4090;49.270;8.696;2024-01-30T09:02:03;4.20;99.90
8095;DHT22;4090;49.270;8.696;2024-01-30T09:04:45;4.10;99.90
8095;DHT22;4090;49.270;8.696;2024-01-30T09:07:29;4.10;99.90
8095;DHT22;4090;49.270;8.696;2024-01-30T09:10:11;4.20;99.90
8095;DHT22;4090;49.270;8.696;2024-01-30T09:12:53;4.10;99.90
8095;DHT22;4090;49.270;8.696;2024-01-30T09:15:34;4.20;99.90
8095;DHT22;4090;49.270;8.696;2024-01-30T09:18:16;4.20;99.90
8095;DHT22;4090;49.270;8.696;2024-01-30T09:20:58;4.20;99.90
8095;DHT22;4090;49.270;8.696;2024-01-30T09:23:42;4.30;99.90
8095;DHT22;4090;49.270;8.696;2024-01-30T09:26:23;4.10;99.90
8095;DHT22;4090;49.270;8.696;2024-01-30T09:29:05;4.20;99.90
8095;DHT22;4090;49.270;8.696;2024-01-30T09:31:47;4.20;99.90
8095;DHT22;4090;49.270;8.696;2024-01-30T09:34:29;4.20;99.90
8095;DHT22;4090;49.270;8.696;2024-01-30T09:37:12;4.10;99.90
8095;DHT22;4090;49.270;8.696;2024-01-30T09:39:57;4.40;99.90
8095;DHT22;4090;49.270;8.696;2024-01-30T09:42:40;4.40;99.90
8095;DHT22;4090;49.270;8.696;2024-01-30T09:45:25;4.40;99.90
8095;DHT22;4090;49.270;8.696;2024-01-30T09:48:07;4.20;99.90
8095;DHT22;4090;49.270;8.696;2024-01-30T09:50:50;4.20;99.90
8095;DHT22;4090;49.270;8.696;2024-01-30T09:53:32;4.50;99.90
8095;DHT22;4090;49.270;8.696;2024-01-30T09:56:16;4.50;99.90
8095;DHT22;4090;49.270;8.696;2024-01-30T09:58:58;4.50;99.90
8095;DHT22;4090;49.270;8.696;2024-01-30T10:01:40;4.40;99.90
8095;DHT22;4090;49.270;8.696;2024-01-30T10:04:22;4.40;99.90
8095;DHT22;4090;49.270;8.696;2024-01-30T10:07:04;4.40;99.90
8095;DHT22;4090;49.270;8.696;2024-01-30T10:09:47;4.30;99.90
8095;DHT22;4090;49.270;8.696;2024-01-30T10:12:31;4.30;99.90
8095;DHT22;4090;49.270;8.696;2024-01-30T10:15:13;4.60;99.90
8095;DHT22;4090;49.270;8.696;2024-01-30T10:17:55;4.40;99.90
8095;DHT22;4090;49.270;8.696;2024-01-30T10:20:37;4.40;99.90
8095;DHT22;4090;49.270;8.696;2024-01-30T10:23:19;4.60;99.90
8095;DHT22;4090;49.270;8.696;2024-01-30T10:26:02;4.70;99.90
8095;DHT22;4090;49.270;8.696;2024-01-30T10:28:47;4.30;99.90
8095;DHT22;4090;49.270;8.696;2024-01-30T10:31:29;4.50;99.90
8095;DHT22;4090;49.270;8.696;2024-01-30T10:34:11;4.70;99.90
8095;DHT22;4090;49.270;8.696;2024-01-30T10:37:01;4.80;99.90
8095;DHT22;4090;49.270;8.696;2024-01-30T10:39:46;4.80;99.90
8095;DHT22;4090;49.270;8.696;2024-01-30T10:42:31;4.70;99.90
8095;DHT22;4090;49.270;8.696;2024-01-30T10:45:15;4.80;99.90
8095;DHT22;4090;49.270;8.696;2024-01-30T10:47:58;4.90;99.90
8095;DHT22;4090;49.270;8.696;2024-01-30T10:50:42;4.90;99.90
8095;DHT22;4090;49.270;8.696;2024-01-30T10:53:24;4.50;99.90
8095;DHT22;4090;49.270;8.696;2024-01-30T10:56:08;4.60;99.90
8095;DHT22;4090;49.270;8.696;2024-01-30T10:58:51;4.80;99.90
8095;DHT22;4090;49.270;8.696;2024-01-30T11:01:35;5.00;99.90
8095;DHT22;4090;49.270;8.696;2024-01-30T11:04:17;5.00;99.90
8095;DHT22;4090;49.270;8.696;2024-01-30T11:06:59;4.80;99.90
8095;DHT22;4090;49.270;8.696;2024-01-30T11:09:49;5.10;99.90
8095;DHT22;4090;49.270;8.696;2024-01-30T11:12:32;4.90;99.90
8095;DHT22;4090;49.270;8.696;2024-01-30T11:15:15;5.10;99.90
8095;DHT22;4090;49.270;8.696;2024-01-30T11:18:00;5.10;99.90
8095;DHT22;4090;49.270;8.696;2024-01-30T11:20:47;4.80;99.90
8095;DHT22;4090;49.270;8.696;2024-01-30T11:23:29;5.20;99.90
8095;DHT22;4090;49.270;8.696;2024-01-30T11:26:11;5.20;99.90
8095;DHT22;4090;49.270;8.696;2024-01-30T11:28:53;5.30;99.90
8095;DHT22;4090;49.270;8.696;2024-01-30T11:31:34;5.30;99.90
8095;DHT22;4090;49.270;8.696;2024-01-30T11:34:18;5.10;99.90
8095;DHT22;4090;49.270;8.696;2024-01-30T11:37:03;5.20;99.90
8095;DHT22;4090;49.270;8.696;2024-01-30T11:39:50;5.30;99.90
8095;DHT22;4090;49.270;8.696;2024-01-30T11:42:32;5.40;99.90
8095;DHT22;4090;49.270;8.696;2024-01-30T11:45:17;5.20;99.90
8095;DHT22;4090;49.270;8.696;2024-01-30T11:47:59;5.30;99.90
8095;DHT22;4090;49.270;8.696;2024-01-30T11:50:45;5.50;99.90
8095;DHT22;4090;49.270;8.696;2024-01-30T11:53:27;5.10;99.90
8095;DHT22;4090;49.270;8.696;2024-01-30T11:56:09;5.40;99.90
8095;DHT22;4090;49.270;8.696;2024-01-30T11:58:51;5.40;99.90
8095;DHT22;4090;49.270;8.696;2024-01-30T12:01:33;5.80;99.90
8095;DHT22;4090;49.270;8.696;2024-01-30T12:04:15;5.90;99.90
8095;DHT22;4090;49.270;8.696;2024-01-30T12:06:58;5.70;99.90
8095;DHT22;4090;49.270;8.696;2024-01-30T12:09:41;6.10;99.90
8095;DHT22;4090;49.270;8.696;2024-01-30T12:12:23;6.30;99.90
8095;DHT22;4090;49.270;8.696;2024-01-30T12:15:06;6.50;99.90
8095;DHT22;4090;49.270;8.696;2024-01-30T12:17:48;6.60;99.90
8095;DHT22;4090;49.270;8.696;2024-01-30T12:20:30;6.60;99.90
8095;DHT22;4090;49.270;8.696;2024-01-30T12:23:13;6.70;99.90
8095;DHT22;4090;49.270;8.696;2024-01-30T12:25:56;7.00;99.90
8095;DHT22;4090;49.270;8.696;2024-01-30T12:28:48;7.20;99.90
8095;DHT22;4090;49.270;8.696;2024-01-30T12:31:32;7.40;99.90
8095;DHT22;4090;49.270;8.696;2024-01-30T12:34:14;7.20;99.90
8095;DHT22;4090;49.270;8.696;2024-01-30T12:36:57;7.10;99.90
8095;DHT22;4090;49.270;8.696;2024-01-30T12:39:40;7.20;99.90
8095;DHT22;4090;49.270;8.696;2024-01-30T12:42:23;7.10;99.90
8095;DHT22;4090;49.270;8.696;2024-01-30T12:45:06;7.30;99.90
8095;DHT22;4090;49.270;8.696;2024-01-30T12:47:48;7.30;99.90
8095;DHT22;4090;49.270;8.696;2024-01-30T12:50:30;7.30;99.90
8095;DHT22;4090;49.270;8.696;2024-01-30T12:53:11;7.40;99.90
8095;DHT22;4090;49.270;8.696;2024-01-30T12:55:55;7.60;99.90
8095;DHT22;4090;49.270;8.696;2024-01-30T12:58:37;7.50;99.90
8095;DHT22;4090;49.270;8.696;2024-01-30T13:01:19;7.60;99.90
8095;DHT22;4090;49.270;8.696;2024-01-30T13:04:01;7.70;99.90
8095;DHT22;4090;49.270;8.696;2024-01-30T13:06:43;7.80;99.90
8095;DHT22;4090;49.270;8.696;2024-01-30T13:09:25;7.60;99.90
8095;DHT22;4090;49.270;8.696;2024-01-30T13:12:08;7.90;99.90
8095;DHT22;4090;49.270;8.696;2024-01-30T13:14:50;7.80;99.90
8095;DHT22;4090;49.270;8.696;2024-01-30T13:17:32;7.80;99.90
8095;DHT22;4090;49.270;8.696;2024-01-30T13:20:14;7.80;99.90
8095;DHT22;4090;49.270;8.696;2024-01-30T13:22:59;7.80;99.90
8095;DHT22;4090;49.270;8.696;2024-01-30T13:25:41;7.80;99.90
8095;DHT22;4090;49.270;8.696;2024-01-30T13:28:24;7.90;99.90
8095;DHT22;4090;49.270;8.696;2024-01-30T13:31:07;7.80;99.90
8095;DHT22;4090;49.270;8.696;2024-01-30T13:33:49;7.90;99.90
8095;DHT22;4090;49.270;8.696;2024-01-30T13:36:30;7.90;99.90
8095;DHT22;4090;49.270;8.696;2024-01-30T13:39:12;7.90;99.90
8095;DHT22;4090;49.270;8.696;2024-01-30T13:41:55;7.90;99.90
8095;DHT22;4090;49.270;8.696;2024-01-30T13:44:38;7.90;99.90
8095;DHT22;4090;49.270;8.696;2024-01-30T13:47:20;7.90;99.90
8095;DHT22;4090;49.270;8.696;2024-01-30T13:50:02;7.90;99.90
8095;DHT22;4090;49.270;8.696;2024-01-30T13:52:44;8.00;99.90
8095;DHT22;4090;49.270;8.696;2024-01-30T13:55:26;8.10;99.90
8095;DHT22;4090;49.270;8.696;2024-01-30T13:58:08;8.10;99.90
8095;DHT22;4090;49.270;8.696;2024-01-30T14:00:51;8.00;99.90
8095;DHT22;4090;49.270;8.696;2024-01-30T14:03:33;8.10;99.90
8095;DHT22;4090;49.270;8.696;2024-01-30T14:06:15;8.10;99.90
8095;DHT22;4090;49.270;8.696;2024-01-30T14:08:57;8.00;99.90
8095;DHT22;4090;49.270;8.696;2024-01-30T14:11:39;8.00;99.90
8095;DHT22;4090;49.270;8.696;2024-01-30T14:14:21;8.10;99.90
8095;DHT22;4090;49.270;8.696;2024-01-30T14:17:04;8.10;99.90
8095;DHT22;4090;49.270;8.696;2024-01-30T14:19:47;8.10;99.90
8095;DHT22;4090;49.270;8.696;2024-01-30T14:22:29;8.10;99.90
8095;DHT22;4090;49.270;8.696;2024-01-30T14:25:11;8.10;99.90
8095;DHT22;4090;49.270;8.696;2024-01-30T14:27:53;8.10;99.90
8095;DHT22;4090;49.270;8.696;2024-01-30T14:30:35;8.10;99.90
8095;DHT22;4090;49.270;8.696;2024-01-30T14:33:18;8.20;99.90
8095;DHT22;4090;49.270;8.696;2024-01-30T14:36:00;8.10;99.90
8095;DHT22;4090;49.270;8.696;2024-01-30T14:38:42;8.20;99.90
8095;DHT22;4090;49.270;8.696;2024-01-30T14:41:23;8.30;99.90
8095;DHT22;4090;49.270;8.696;2024-01-30T14:44:05;8.40;99.90
8095;DHT22;4090;49.270;8.696;2024-01-30T14:46:48;8.60;99.90
8095;DHT22;4090;49.270;8.696;2024-01-30T14:49:32;8.70;99.90
8095;DHT22;4090;49.270;8.696;2024-01-30T14:52:13;8.70;99.90
8095;DHT22;4090;49.270;8.696;2024-01-30T14:54:55;8.70;99.90
8095;DHT22;4090;49.270;8.696;2024-01-30T14:57:37;8.70;99.90
8095;DHT22;4090;49.270;8.696;2024-01-30T15:00:19;8.60;99.90
8095;DHT22;4090;49.270;8.696;2024-01-30T15:03:01;8.60;99.90
8095;DHT22;4090;49.270;8.696;2024-01-30T15:05:44;8.60;99.90
8095;DHT22;4090;49.270;8.696;2024-01-30T15:08:26;8.50;99.90
8095;DHT22;4090;49.270;8.696;2024-01-30T15:11:08;8.50;99.90
8095;DHT22;4090;49.270;8.696;2024-01-30T15:13:50;8.40;99.90
8095;DHT22;4090;49.270;8.696;2024-01-30T15:16:32;8.50;99.90
8095;DHT22;4090;49.270;8.696;2024-01-30T15:19:13;8.50;99.90
8095;DHT22;4090;49.270;8.696;2024-01-30T15:21:57;8.50;99.90
8095;DHT22;4090;49.270;8.696;2024-01-30T15:24:39;8.50;99.90
8095;DHT22;4090;49.270;8.696;2024-01-30T15:27:21;8.40;99.90
8095;DHT22;4090;49.270;8.696;2024-01-30T15:30:04;8.40;99.90
8095;DHT22;4090;49.270;8.696;2024-01-30T15:32:46;8.30;99.90
8095;DHT22;4090;49.270;8.696;2024-01-30T15:35:28;8.30;99.90
8095;DHT22;4090;49.270;8.696;2024-01-30T15:38:12;8.30;99.90
8095;DHT22;4090;49.270;8.696;2024-01-30T15:40:55;8.40;99.90
8095;DHT22;4090;49.270;8.696;2024-01-30T15:43:37;8.20;99.90
8095;DHT22;4090;49.270;8.696;2024-01-30T15:46:19;8.20;99.90
8095;DHT22;4090;49.270;8.696;2024-01-30T15:49:01;8.20;99.90
8095;DHT22;4090;49.270;8.696;2024-01-30T15:51:44;8.20;99.90
8095;DHT22;4090;49.270;8.696;2024-01-30T15:54:28;8.10;99.90
8095;DHT22;4090;49.270;8.696;2024-01-30T15:57:09;8.10;99.90
8095;DHT22;4090;49.270;8.696;2024-01-30T15:59:51;8.10;99.90
8095;DHT22;4090;49.270;8.696;2024-01-30T16:02:33;8.10;99.90
8095;DHT22;4090;49.270;8.696;2024-01-30T16:05:16;8.10;99.90
8095;DHT22;4090;49.270;8.696;2024-01-30T16:07:58;8.10;99.90
8095;DHT22;4090;49.270;8.696;2024-01-30T16:10:43;8.10;99.90
8095;DHT22;4090;49.270;8.696;2024-01-30T16:13:25;8.10;99.90
8095;DHT22;4090;49.270;8.696;2024-01-30T16:16:06;8.10;99.90
8095;DHT22;4090;49.270;8.696;2024-01-30T16:18:49;8.10;99.90
8095;DHT22;4090;49.270;8.696;2024-01-30T16:21:31;8.10;99.90
8095;DHT22;4090;49.270;8.696;2024-01-30T16:24:14;8.10;99.90
8095;DHT22;4090;49.270;8.696;2024-01-30T16:27:16;8.20;99.90
8095;DHT22;4090;49.270;8.696;2024-01-30T16:30:20;8.10;99.90
8095;DHT22;4090;49.270;8.696;2024-01-30T16:33:23;8.10;99.90
8095;DHT22;4090;49.270;8.696;2024-01-30T16:36:24;8.10;99.90
8095;DHT22;4090;49.270;8.696;2024-01-30T16:39:30;8.20;99.90
8095;DHT22;4090;49.270;8.696;2024-01-30T16:42:34;8.10;99.90
8095;DHT22;4090;49.270;8.696;2024-01-30T16:45:41;8.20;99.90
8095;DHT22;4090;49.270;8.696;2024-01-30T16:48:45;8.10;99.90
8095;DHT22;4090;49.270;8.696;2024-01-30T16:51:52;8.10;99.90
8095;DHT22;4090;49.270;8.696;2024-01-30T16:54:58;8.00;99.90
8095;DHT22;4090;49.270;8.696;2024-01-30T16:58:02;8.10;99.90
8095;DHT22;4090;49.270;8.696;2024-01-30T17:01:09;8.00;99.90
8095;DHT22;4090;49.270;8.696;2024-01-30T17:04:10;7.90;99.90
8095;DHT22;4090;49.270;8.696;2024-01-30T17:07:18;8.00;99.90
8095;DHT22;4090;49.270;8.696;2024-01-30T17:10:18;8.00;99.90
8095;DHT22;4090;49.270;8.696;2024-01-30T17:13:22;8.00;99.90
8095;DHT22;4090;49.270;8.696;2024-01-30T17:16:25;8.00;99.90
8095;DHT22;4090;49.270;8.696;2024-01-30T17:19:29;7.90;99.90
8095;DHT22;4090;49.270;8.696;2024-01-30T17:22:31;8.00;99.90
8095;DHT22;4090;49.270;8.696;2024-01-30T17:25:38;7.90;99.90
8095;DHT22;4090;49.270;8.696;2024-01-30T17:28:46;8.00;99.90
8095;DHT22;4090;49.270;8.696;2024-01-30T17:31:47;7.90;99.90
8095;DHT22;4090;49.270;8.696;2024-01-30T17:34:52;8.00;99.90
8095;DHT22;4090;49.270;8.696;2024-01-30T17:38:00;8.00;99.90
8095;DHT22;4090;49.270;8.696;2024-01-30T17:41:08;8.00;99.90
8095;DHT22;4090;49.270;8.696;2024-01-30T17:44:14;7.90;99.90
8095;DHT22;4090;49.270;8.696;2024-01-30T17:47:18;7.90;99.90
8095;DHT22;4090;49.270;8.696;2024-01-30T17:50:19;7.90;99.90
8095;DHT22;4090;49.270;8.696;2024-01-30T17:53:01;7.80;99.90
8095;DHT22;4090;49.270;8.696;2024-01-30T17:55:43;7.80;99.90
8095;DHT22;4090;49.270;8.696;2024-01-30T17:58:25;7.90;99.90
8095;DHT22;4090;49.270;8.696;2024-01-30T18:01:08;7.80;99.90
8095;DHT22;4090;49.270;8.696;2024-01-30T18:03:51;7.80;99.90
8095;DHT22;4090;49.270;8.696;2024-01-30T18:06:36;7.80;99.90